Terminal Aerodrome Forecast
Issued by NWS

Home | Current Version | Previous Version | Text Only | Print | Product List | Glossary On
Versions: 1 2 3 4 5 6 7 8 9 10 11 12 13 14 15 16 17 18 19 20 21 22 23 24 25 26 27 28 29 30 31 32
000
FTUS41 KBUF 181100
TAFJHW
TAF
KJHW 181139Z 1812/1912 VRB03KT 1/4SM FG BKN001
     FM181330 VRB03KT P6SM BKN007
     FM181500 33006KT P6SM SCT007 BKN250
     FM181800 34008KT P6SM SCT015 BKN025
     FM182100 35008KT P6SM BKN250
     FM190400 06004KT P6SM FEW250
     FM190800 11005KT 1/2SM FG BKN007
      AMD LTD TO CLD VIS AND WIND=

USA.gov is the U.S. government's official web portal to all federal, state and local government web resources and services.